sensor_id;sensor_type;location;lat;lon;timestamp;pressure;altitude;pressure_sealevel;temperature;humidity
3812;BME280;1921;49.368;11.068;2023-10-09T00:01:07;98222.03;;;13.59;100.00
3812;BME280;1921;49.368;11.068;2023-10-09T00:03:44;98274.28;;;13.90;100.00
3812;BME280;1921;49.368;11.068;2023-10-09T00:06:10;98276.16;;;13.96;100.00
3812;BME280;1921;49.368;11.068;2023-10-09T00:08:39;98254.03;;;13.84;100.00
3812;BME280;1921;49.368;11.068;2023-10-09T00:11:10;98215.25;;;13.65;100.00
3812;BME280;1921;49.368;11.068;2023-10-09T00:13:44;98242.19;;;13.88;100.00
3812;BME280;1921;49.368;11.068;2023-10-09T00:16:25;98223.28;;;13.78;100.00
3812;BME280;1921;49.368;11.068;2023-10-09T00:19:05;98232.22;;;13.84;100.00
3812;BME280;1921;49.368;11.068;2023-10-09T00:21:44;98263.41;;;14.08;100.00
3812;BME280;1921;49.368;11.068;2023-10-09T00:24:10;98237.03;;;13.95;100.00
3812;BME280;1921;49.368;11.068;2023-10-09T00:26:45;98257.81;;;14.11;100.00
3812;BME280;1921;49.368;11.068;2023-10-09T00:29:12;98227.00;;;13.98;100.00
3812;BME280;1921;49.368;11.068;2023-10-09T00:31:56;98224.09;;;13.93;100.00
3812;BME280;1921;49.368;11.068;2023-10-09T00:34:39;98216.84;;;13.95;100.00
3812;BME280;1921;49.368;11.068;2023-10-09T00:37:07;98125.38;;;13.35;100.00
3812;BME280;1921;49.368;11.068;2023-10-09T00:39:36;98199.78;;;13.85;100.00
3812;BME280;1921;49.368;11.068;2023-10-09T00:42:02;98195.78;;;13.89;100.00
3812;BME280;1921;49.368;11.068;2023-10-09T00:44:31;98167.81;;;13.74;100.00
3812;BME280;1921;49.368;11.068;2023-10-09T00:47:06;98231.84;;;14.16;100.00
3812;BME280;1921;49.368;11.068;2023-10-09T00:49:59;98178.06;;;13.91;100.00
3812;BME280;1921;49.368;11.068;2023-10-09T00:52:32;98198.56;;;14.02;100.00
3812;BME280;1921;49.368;11.068;2023-10-09T00:55:20;98165.22;;;13.96;100.00
3812;BME280;1921;49.368;11.068;2023-10-09T00:58:09;98137.69;;;13.85;100.00
3812;BME280;1921;49.368;11.068;2023-10-09T01:00:42;98194.00;;;14.25;100.00
3812;BME280;1921;49.368;11.068;2023-10-09T01:03:17;98186.50;;;14.22;100.00
3812;BME280;1921;49.368;11.068;2023-10-09T01:05:51;98153.25;;;14.08;100.00
3812;BME280;1921;49.368;11.068;2023-10-09T01:08:29;98201.44;;;14.43;100.00
3812;BME280;1921;49.368;11.068;2023-10-09T01:10:59;98186.88;;;14.41;100.00
3812;BME280;1921;49.368;11.068;2023-10-09T01:13:36;98187.50;;;14.43;100.00
3812;BME280;1921;49.368;11.068;2023-10-09T01:16:25;98151.75;;;14.20;100.00
3812;BME280;1921;49.368;11.068;2023-10-09T01:18:53;98131.09;;;14.11;100.00
3812;BME280;1921;49.368;11.068;2023-10-09T01:21:22;98155.19;;;14.21;100.00
3812;BME280;1921;49.368;11.068;2023-10-09T01:23:53;98164.38;;;14.32;100.00
3812;BME280;1921;49.368;11.068;2023-10-09T01:26:36;98059.81;;;13.64;100.00
3812;BME280;1921;49.368;11.068;2023-10-09T01:29:09;98189.47;;;14.56;100.00
3812;BME280;1921;49.368;11.068;2023-10-09T01:31:47;98178.28;;;14.47;100.00
3812;BME280;1921;49.368;11.068;2023-10-09T01:34:29;98097.03;;;13.96;100.00
3812;BME280;1921;49.368;11.068;2023-10-09T01:37:05;98176.50;;;14.47;100.00
3812;BME280;1921;49.368;11.068;2023-10-09T01:39:39;98154.50;;;14.34;100.00
3812;BME280;1921;49.368;11.068;2023-10-09T01:42:09;98149.84;;;14.29;100.00
3812;BME280;1921;49.368;11.068;2023-10-09T01:44:36;98178.81;;;14.42;100.00
3812;BME280;1921;49.368;11.068;2023-10-09T01:47:09;98145.50;;;14.21;100.00
3812;BME280;1921;49.368;11.068;2023-10-09T01:49:42;98128.28;;;14.12;100.00
3812;BME280;1921;49.368;11.068;2023-10-09T01:52:10;98130.50;;;14.15;100.00
3812;BME280;1921;49.368;11.068;2023-10-09T01:54:46;98165.00;;;14.34;100.00
3812;BME280;1921;49.368;11.068;2023-10-09T01:57:15;98103.16;;;14.03;100.00
3812;BME280;1921;49.368;11.068;2023-10-09T01:59:43;98096.22;;;13.95;100.00
3812;BME280;1921;49.368;11.068;2023-10-09T02:02:11;98141.91;;;14.22;100.00
3812;BME280;1921;49.368;11.068;2023-10-09T02:04:58;98108.03;;;14.06;100.00
3812;BME280;1921;49.368;11.068;2023-10-09T02:07:37;98111.28;;;14.08;100.00
3812;BME280;1921;49.368;11.068;2023-10-09T02:10:08;98131.22;;;14.24;100.00
3812;BME280;1921;49.368;11.068;2023-10-09T02:12:47;98103.97;;;14.04;100.00
3812;BME280;1921;49.368;11.068;2023-10-09T02:15:17;98101.53;;;14.02;100.00
3812;BME280;1921;49.368;11.068;2023-10-09T02:18:03;98151.66;;;14.28;100.00
3812;BME280;1921;49.368;11.068;2023-10-09T02:20:46;98132.94;;;13.95;100.00
3812;BME280;1921;49.368;11.068;2023-10-09T02:23:15;98155.50;;;14.11;100.00
3812;BME280;1921;49.368;11.068;2023-10-09T02:25:42;98072.19;;;13.70;100.00
3812;BME280;1921;49.368;11.068;2023-10-09T02:28:09;98109.16;;;13.97;100.00
3812;BME280;1921;49.368;11.068;2023-10-09T02:30:44;98088.69;;;13.86;100.00
3812;BME280;1921;49.368;11.068;2023-10-09T02:33:14;98080.00;;;13.85;100.00
3812;BME280;1921;49.368;11.068;2023-10-09T02:35:44;98099.50;;;13.97;100.00
3812;BME280;1921;49.368;11.068;2023-10-09T02:38:10;98094.06;;;13.99;100.00
3812;BME280;1921;49.368;11.068;2023-10-09T02:40:43;98101.34;;;14.04;100.00
3812;BME280;1921;49.368;11.068;2023-10-09T02:43:32;98095.06;;;13.98;100.00
3812;BME280;1921;49.368;11.068;2023-10-09T02:46:01;98101.59;;;14.09;100.00
3812;BME280;1921;49.368;11.068;2023-10-09T02:48:44;98119.28;;;14.21;100.00
3812;BME280;1921;49.368;11.068;2023-10-09T02:51:19;98045.03;;;13.78;100.00
3812;BME280;1921;49.368;11.068;2023-10-09T02:54:00;98113.22;;;14.21;100.00
3812;BME280;1921;49.368;11.068;2023-10-09T02:56:34;98067.53;;;13.87;100.00
3812;BME280;1921;49.368;11.068;2023-10-09T02:59:06;98075.69;;;13.99;100.00
3812;BME280;1921;49.368;11.068;2023-10-09T03:01:38;98094.31;;;14.04;100.00
3812;BME280;1921;49.368;11.068;2023-10-09T03:04:04;98072.00;;;13.93;100.00
3812;BME280;1921;49.368;11.068;2023-10-09T03:06:32;98065.31;;;13.91;100.00
3812;BME280;1921;49.368;11.068;2023-10-09T03:09:03;98080.13;;;13.98;100.00
3812;BME280;1921;49.368;11.068;2023-10-09T03:11:49;98055.56;;;13.85;100.00
3812;BME280;1921;49.368;11.068;2023-10-09T03:14:40;98075.25;;;13.95;100.00
3812;BME280;1921;49.368;11.068;2023-10-09T03:17:07;98043.00;;;13.59;100.00
3812;BME280;1921;49.368;11.068;2023-10-09T03:19:40;98062.09;;;13.53;100.00
3812;BME280;1921;49.368;11.068;2023-10-09T03:22:07;98068.88;;;13.47;100.00
3812;BME280;1921;49.368;11.068;2023-10-09T03:24:40;98084.25;;;13.50;100.00
3812;BME280;1921;49.368;11.068;2023-10-09T03:27:10;98099.47;;;13.76;100.00
3812;BME280;1921;49.368;11.068;2023-10-09T03:29:37;98119.97;;;13.87;100.00
3812;BME280;1921;49.368;11.068;2023-10-09T03:32:03;98114.25;;;13.84;100.00
3812;BME280;1921;49.368;11.068;2023-10-09T03:34:29;98068.06;;;13.61;100.00
3812;BME280;1921;49.368;11.068;2023-10-09T03:36:56;98033.31;;;13.38;100.00
3812;BME280;1921;49.368;11.068;2023-10-09T03:39:31;98067.88;;;13.63;100.00
3812;BME280;1921;49.368;11.068;2023-10-09T03:42:12;98066.25;;;13.62;100.00
3812;BME280;1921;49.368;11.068;2023-10-09T03:44:46;98085.09;;;13.72;100.00
3812;BME280;1921;49.368;11.068;2023-10-09T03:47:17;98067.34;;;13.53;100.00
3812;BME280;1921;49.368;11.068;2023-10-09T03:49:50;98115.69;;;13.50;100.00
3812;BME280;1921;49.368;11.068;2023-10-09T03:52:19;98063.06;;;13.30;100.00
3812;BME280;1921;49.368;11.068;2023-10-09T03:54:45;98103.88;;;13.54;100.00
3812;BME280;1921;49.368;11.068;2023-10-09T03:57:15;98059.78;;;13.28;100.00
3812;BME280;1921;49.368;11.068;2023-10-09T03:59:48;98060.78;;;13.27;100.00
3812;BME280;1921;49.368;11.068;2023-10-09T04:02:14;98057.56;;;13.25;100.00
3812;BME280;1921;49.368;11.068;2023-10-09T04:04:42;98062.25;;;13.30;100.00
3812;BME280;1921;49.368;11.068;2023-10-09T04:07:13;98060.44;;;13.30;100.00
3812;BME280;1921;49.368;11.068;2023-10-09T04:09:42;98032.09;;;13.04;100.00
3812;BME280;1921;49.368;11.068;2023-10-09T04:12:10;98019.75;;;12.98;100.00
3812;BME280;1921;49.368;11.068;2023-10-09T04:14:40;98021.44;;;12.91;100.00
3812;BME280;1921;49.368;11.068;2023-10-09T04:17:14;98078.41;;;13.18;100.00
3812;BME280;1921;49.368;11.068;2023-10-09T04:19:49;97990.50;;;12.65;100.00
3812;BME280;1921;49.368;11.068;2023-10-09T04:22:39;98067.59;;;12.92;100.00
3812;BME280;1921;49.368;11.068;2023-10-09T04:25:11;98036.69;;;12.58;100.00
3812;BME280;1921;49.368;11.068;2023-10-09T04:27:43;98057.72;;;12.50;100.00
3812;BME280;1921;49.368;11.068;2023-10-09T04:30:10;98035.78;;;12.36;100.00
3812;BME280;1921;49.368;11.068;2023-10-09T04:32:41;98054.09;;;12.51;100.00
3812;BME280;1921;49.368;11.068;2023-10-09T04:35:11;98040.16;;;12.35;100.00
3812;BME280;1921;49.368;11.068;2023-10-09T04:38:03;98041.34;;;12.33;100.00
3812;BME280;1921;49.368;11.068;2023-10-09T04:40:30;98050.09;;;12.40;100.00
3812;BME280;1921;49.368;11.068;2023-10-09T04:43:11;98054.22;;;12.34;100.00
3812;BME280;1921;49.368;11.068;2023-10-09T04:45:48;98086.41;;;12.58;100.00
3812;BME280;1921;49.368;11.068;2023-10-09T04:48:32;98049.81;;;12.35;100.00
3812;BME280;1921;49.368;11.068;2023-10-09T04:51:00;98046.56;;;12.33;100.00
3812;BME280;1921;49.368;11.068;2023-10-09T04:53:44;98039.25;;;12.28;100.00
3812;BME280;1921;49.368;11.068;2023-10-09T04:56:16;98011.38;;;12.21;100.00
3812;BME280;1921;49.368;11.068;2023-10-09T04:58:42;98027.16;;;12.27;100.00
3812;BME280;1921;49.368;11.068;2023-10-09T05:01:09;98045.50;;;12.42;100.00
3812;BME280;1921;49.368;11.068;2023-10-09T05:03:40;98047.56;;;12.32;100.00
3812;BME280;1921;49.368;11.068;2023-10-09T05:06:07;98015.97;;;12.19;100.00
3812;BME280;1921;49.368;11.068;2023-10-09T05:09:08;98046.84;;;12.38;100.00
3812;BME280;1921;49.368;11.068;2023-10-09T05:11:35;98049.81;;;12.35;100.00
3812;BME280;1921;49.368;11.068;2023-10-09T05:14:20;98012.88;;;12.00;100.00
3812;BME280;1921;49.368;11.068;2023-10-09T05:17:05;98026.06;;;12.07;100.00
3812;BME280;1921;49.368;11.068;2023-10-09T05:19:34;98053.50;;;12.26;100.00
3812;BME280;1921;49.368;11.068;2023-10-09T05:22:20;98004.53;;;11.82;100.00
3812;BME280;1921;49.368;11.068;2023-10-09T05:24:58;98022.63;;;11.83;100.00
3812;BME280;1921;49.368;11.068;2023-10-09T05:27:24;98053.13;;;11.91;100.00
3812;BME280;1921;49.368;11.068;2023-10-09T05:30:10;98051.59;;;11.97;100.00
3812;BME280;1921;49.368;11.068;2023-10-09T05:32:55;98040.34;;;11.96;100.00
3812;BME280;1921;49.368;11.068;2023-10-09T05:35:25;98010.84;;;11.88;100.00
3812;BME280;1921;49.368;11.068;2023-10-09T05:38:09;97994.75;;;11.76;100.00
3812;BME280;1921;49.368;11.068;2023-10-09T05:40:51;98046.59;;;12.10;100.00
3812;BME280;1921;49.368;11.068;2023-10-09T05:43:21;98040.00;;;11.99;100.00
3812;BME280;1921;49.368;11.068;2023-10-09T05:46:06;98054.97;;;11.82;100.00
3812;BME280;1921;49.368;11.068;2023-10-09T05:48:35;98016.72;;;11.58;100.00
3812;BME280;1921;49.368;11.068;2023-10-09T05:51:04;98039.75;;;11.86;100.00
3812;BME280;1921;49.368;11.068;2023-10-09T05:53:38;98087.03;;;12.22;100.00
3812;BME280;1921;49.368;11.068;2023-10-09T05:56:10;98078.19;;;12.23;100.00
3812;BME280;1921;49.368;11.068;2023-10-09T05:58:55;98074.72;;;12.31;100.00
3812;BME280;1921;49.368;11.068;2023-10-09T06:01:40;98043.75;;;12.20;100.00
3812;BME280;1921;49.368;11.068;2023-10-09T06:04:44;98043.84;;;12.26;100.00
3812;BME280;1921;49.368;11.068;2023-10-09T06:07:20;98022.31;;;12.24;100.00
3812;BME280;1921;49.368;11.068;2023-10-09T06:09:50;98067.84;;;12.68;100.00
3812;BME280;1921;49.368;11.068;2023-10-09T06:12:19;98060.50;;;12.78;100.00
3812;BME280;1921;49.368;11.068;2023-10-09T06:15:15;98078.56;;;13.02;100.00
3812;BME280;1921;49.368;11.068;2023-10-09T06:18:16;98047.88;;;12.96;100.00
3812;BME280;1921;49.368;11.068;2023-10-09T06:20:59;98091.22;;;13.13;100.00
3812;BME280;1921;49.368;11.068;2023-10-09T06:23:45;98016.03;;;12.78;100.00
3812;BME280;1921;49.368;11.068;2023-10-09T06:26:29;97972.91;;;12.74;100.00
3812;BME280;1921;49.368;11.068;2023-10-09T06:28:58;98039.56;;;13.37;100.00
3812;BME280;1921;49.368;11.068;2023-10-09T06:31:56;98071.50;;;13.83;100.00
3812;BME280;1921;49.368;11.068;2023-10-09T06:34:28;98102.06;;;14.12;100.00
3812;BME280;1921;49.368;11.068;2023-10-09T06:37:01;98034.50;;;13.93;100.00
3812;BME280;1921;49.368;11.068;2023-10-09T06:39:44;98044.00;;;14.22;100.00
3812;BME280;1921;49.368;11.068;2023-10-09T06:42:22;98042.44;;;14.27;100.00
3812;BME280;1921;49.368;11.068;2023-10-09T06:45:12;98102.47;;;14.87;100.00
3812;BME280;1921;49.368;11.068;2023-10-09T06:47:50;97971.00;;;14.25;100.00
3812;BME280;1921;49.368;11.068;2023-10-09T06:50:22;98059.97;;;15.04;100.00
3812;BME280;1921;49.368;11.068;2023-10-09T06:52:54;98048.94;;;15.22;100.00
3812;BME280;1921;49.368;11.068;2023-10-09T06:55:24;98030.56;;;15.29;100.00
3812;BME280;1921;49.368;11.068;2023-10-09T06:58:02;98096.47;;;15.82;100.00
3812;BME280;1921;49.368;11.068;2023-10-09T07:00:41;98051.16;;;15.80;100.00
3812;BME280;1921;49.368;11.068;2023-10-09T07:03:29;98060.47;;;16.02;100.00
3812;BME280;1921;49.368;11.068;2023-10-09T07:06:09;98091.91;;;16.50;100.00
3812;BME280;1921;49.368;11.068;2023-10-09T07:08:55;98081.56;;;16.75;100.00
3812;BME280;1921;49.368;11.068;2023-10-09T07:11:44;98017.75;;;16.60;96.86
3812;BME280;1921;49.368;11.068;2023-10-09T07:17:01;98034.91;;;17.54;95.75
3812;BME280;1921;49.368;11.068;2023-10-09T07:19:28;98078.41;;;18.14;94.94
3812;BME280;1921;49.368;11.068;2023-10-09T07:22:03;98061.03;;;18.50;93.22
3812;BME280;1921;49.368;11.068;2023-10-09T07:24:30;98024.78;;;18.64;89.18
3812;BME280;1921;49.368;11.068;2023-10-09T07:27:19;98072.44;;;19.30;83.28
3812;BME280;1921;49.368;11.068;2023-10-09T07:30:07;98040.25;;;19.52;81.43
3812;BME280;1921;49.368;11.068;2023-10-09T07:32:54;98069.34;;;20.12;78.85
3812;BME280;1921;49.368;11.068;2023-10-09T07:35:23;98075.19;;;20.44;78.15
3812;BME280;1921;49.368;11.068;2023-10-09T07:38:18;98107.03;;;20.79;71.88
3812;BME280;1921;49.368;11.068;2023-10-09T07:40:55;98057.94;;;20.65;68.71
3812;BME280;1921;49.368;11.068;2023-10-09T07:43:39;98074.53;;;20.95;70.96
3812;BME280;1921;49.368;11.068;2023-10-09T07:46:06;98065.06;;;21.00;68.10
3812;BME280;1921;49.368;11.068;2023-10-09T07:48:51;98098.69;;;21.46;65.85
3812;BME280;1921;49.368;11.068;2023-10-09T07:51:20;98127.94;;;21.63;65.12
3812;BME280;1921;49.368;11.068;2023-10-09T07:53:52;98116.13;;;21.82;65.18
3812;BME280;1921;49.368;11.068;2023-10-09T07:56:36;98076.13;;;21.60;61.64
3812;BME280;1921;49.368;11.068;2023-10-09T07:59:15;98102.41;;;22.02;60.38
3812;BME280;1921;49.368;11.068;2023-10-09T08:01:46;98072.63;;;22.00;59.83
3812;BME280;1921;49.368;11.068;2023-10-09T08:04:25;98101.81;;;22.28;59.78
3812;BME280;1921;49.368;11.068;2023-10-09T08:07:11;98099.75;;;22.30;58.17
3812;BME280;1921;49.368;11.068;2023-10-09T08:09:52;98099.88;;;22.41;59.44
3812;BME280;1921;49.368;11.068;2023-10-09T08:12:36;98103.84;;;22.38;57.89
3812;BME280;1921;49.368;11.068;2023-10-09T08:15:03;98132.69;;;22.63;56.98
3812;BME280;1921;49.368;11.068;2023-10-09T08:17:52;98133.41;;;22.75;57.66
3812;BME280;1921;49.368;11.068;2023-10-09T08:20:44;98144.00;;;22.87;55.12
3812;BME280;1921;49.368;11.068;2023-10-09T08:23:25;98151.00;;;22.93;55.60
3812;BME280;1921;49.368;11.068;2023-10-09T08:26:09;98090.44;;;22.83;54.89
3812;BME280;1921;49.368;11.068;2023-10-09T08:28:43;98106.78;;;23.09;52.96
3812;BME280;1921;49.368;11.068;2023-10-09T08:31:14;98124.41;;;23.32;52.06
3812;BME280;1921;49.368;11.068;2023-10-09T08:33:58;98110.59;;;23.35;51.59
3812;BME280;1921;49.368;11.068;2023-10-09T08:36:28;98064.44;;;23.24;51.57
3812;BME280;1921;49.368;11.068;2023-10-09T08:38:57;98083.28;;;23.45;50.05
3812;BME280;1921;49.368;11.068;2023-10-09T08:41:40;98069.75;;;23.68;49.77
3812;BME280;1921;49.368;11.068;2023-10-09T08:44:07;98043.31;;;23.88;48.69
3812;BME280;1921;49.368;11.068;2023-10-09T08:46:34;98042.56;;;24.25;46.63
3812;BME280;1921;49.368;11.068;2023-10-09T08:49:02;97997.53;;;23.97;46.26
3812;BME280;1921;49.368;11.068;2023-10-09T08:51:36;97959.38;;;24.23;46.08
3812;BME280;1921;49.368;11.068;2023-10-09T08:54:03;98099.44;;;25.68;45.79
3812;BME280;1921;49.368;11.068;2023-10-09T08:56:30;98010.16;;;25.48;43.60
3812;BME280;1921;49.368;11.068;2023-10-09T08:58:58;98118.88;;;26.56;42.73
3812;BME280;1921;49.368;11.068;2023-10-09T09:01:25;98144.56;;;26.73;41.20
3812;BME280;1921;49.368;11.068;2023-10-09T09:03:52;98095.25;;;25.92;42.39
3812;BME280;1921;49.368;11.068;2023-10-09T09:06:21;98127.75;;;25.69;43.25
3812;BME280;1921;49.368;11.068;2023-10-09T09:08:50;98116.84;;;25.75;43.31
3812;BME280;1921;49.368;11.068;2023-10-09T09:11:21;98104.59;;;25.95;43.32
3812;BME280;1921;49.368;11.068;2023-10-09T09:16:31;98143.47;;;26.43;42.63
3812;BME280;1921;49.368;11.068;2023-10-09T09:18:59;98130.09;;;26.79;42.38
3812;BME280;1921;49.368;11.068;2023-10-09T09:21:39;98129.00;;;27.00;40.64
3812;BME280;1921;49.368;11.068;2023-10-09T09:24:08;98115.56;;;27.31;41.06
3812;BME280;1921;49.368;11.068;2023-10-09T09:26:50;98103.56;;;27.08;41.44
3812;BME280;1921;49.368;11.068;2023-10-09T09:32:10;98156.22;;;27.43;39.69
3812;BME280;1921;49.368;11.068;2023-10-09T09:34:51;98159.19;;;27.36;40.21
3812;BME280;1921;49.368;11.068;2023-10-09T09:37:25;98102.78;;;26.87;40.46
3812;BME280;1921;49.368;11.068;2023-10-09T09:39:59;98113.22;;;26.22;41.05
3812;BME280;1921;49.368;11.068;2023-10-09T09:42:43;98141.50;;;25.93;42.17
3812;BME280;1921;49.368;11.068;2023-10-09T09:45:14;98127.97;;;25.47;42.76
3812;BME280;1921;49.368;11.068;2023-10-09T09:47:44;98136.00;;;25.05;44.11
3812;BME280;1921;49.368;11.068;2023-10-09T09:50:17;98140.84;;;25.13;44.24
3812;BME280;1921;49.368;11.068;2023-10-09T09:52:55;98088.41;;;24.54;45.12
3812;BME280;1921;49.368;11.068;2023-10-09T09:55:26;98152.66;;;24.85;48.04
3812;BME280;1921;49.368;11.068;2023-10-09T09:57:59;98143.38;;;24.33;51.66
3812;BME280;1921;49.368;11.068;2023-10-09T10:00:30;98053.16;;;23.17;55.88
3812;BME280;1921;49.368;11.068;2023-10-09T10:03:31;98200.81;;;23.70;55.69
3812;BME280;1921;49.368;11.068;2023-10-09T10:06:00;98097.63;;;22.66;56.26
3812;BME280;1921;49.368;11.068;2023-10-09T10:08:31;98154.78;;;22.97;56.95
3812;BME280;1921;49.368;11.068;2023-10-09T10:10:59;98137.66;;;23.10;55.79
3812;BME280;1921;49.368;11.068;2023-10-09T10:19:04;98132.88;;;23.95;51.67
3812;BME280;1921;49.368;11.068;2023-10-09T10:21:36;98161.31;;;24.11;49.88
3812;BME280;1921;49.368;11.068;2023-10-09T10:35:21;98141.44;;;24.51;47.44
3812;BME280;1921;49.368;11.068;2023-10-09T10:38:01;98216.00;;;24.40;49.27
3812;BME280;1921;49.368;11.068;2023-10-09T10:40:33;98147.22;;;24.15;48.10
3812;BME280;1921;49.368;11.068;2023-10-09T10:43:07;98202.78;;;24.51;47.12
3812;BME280;1921;49.368;11.068;2023-10-09T10:45:39;98120.38;;;23.95;47.77
3812;BME280;1921;49.368;11.068;2023-10-09T10:48:11;98147.63;;;24.02;50.03
3812;BME280;1921;49.368;11.068;2023-10-09T10:51:04;98124.91;;;23.51;51.46
3812;BME280;1921;49.368;11.068;2023-10-09T10:53:30;98153.31;;;23.23;56.43
3812;BME280;1921;49.368;11.068;2023-10-09T10:56:13;98105.53;;;22.44;58.05
3812;BME280;1921;49.368;11.068;2023-10-09T10:58:53;98168.78;;;22.59;61.65
3812;BME280;1921;49.368;11.068;2023-10-09T11:01:30;98110.22;;;22.09;63.68
3812;BME280;1921;49.368;11.068;2023-10-09T11:04:16;98096.44;;;21.95;62.30
3812;BME280;1921;49.368;11.068;2023-10-09T11:06:54;98057.31;;;21.62;59.39
3812;BME280;1921;49.368;11.068;2023-10-09T11:09:46;98096.34;;;21.90;61.70
3812;BME280;1921;49.368;11.068;2023-10-09T11:12:46;98083.75;;;21.85;61.95
3812;BME280;1921;49.368;11.068;2023-10-09T11:15:17;98099.00;;;22.18;59.09
3812;BME280;1921;49.368;11.068;2023-10-09T11:18:03;98092.25;;;21.99;59.88
3812;BME280;1921;49.368;11.068;2023-10-09T11:20:43;98042.97;;;21.91;60.99
3812;BME280;1921;49.368;11.068;2023-10-09T11:23:22;98052.00;;;22.07;59.78
3812;BME280;1921;49.368;11.068;2023-10-09T11:26:02;98118.19;;;23.04;56.27
3812;BME280;1921;49.368;11.068;2023-10-09T11:29:11;97998.06;;;22.57;56.23
3812;BME280;1921;49.368;11.068;2023-10-09T11:32:05;98051.16;;;23.51;53.41
3812;BME280;1921;49.368;11.068;2023-10-09T11:34:32;98053.34;;;24.08;50.58
3812;BME280;1921;49.368;11.068;2023-10-09T11:39:34;98037.50;;;23.92;51.49
3812;BME280;1921;49.368;11.068;2023-10-09T11:42:05;98041.88;;;24.08;49.92
3812;BME280;1921;49.368;11.068;2023-10-09T11:44:49;98085.25;;;24.30;51.08
3812;BME280;1921;49.368;11.068;2023-10-09T11:47:20;98029.31;;;23.49;50.24
3812;BME280;1921;49.368;11.068;2023-10-09T11:49:57;98033.75;;;23.66;48.58
3812;BME280;1921;49.368;11.068;2023-10-09T11:52:27;97934.69;;;22.88;49.54
3812;BME280;1921;49.368;11.068;2023-10-09T11:55:11;98062.28;;;23.97;50.41
3812;BME280;1921;49.368;11.068;2023-10-09T11:57:41;97990.44;;;23.75;49.79
3812;BME280;1921;49.368;11.068;2023-10-09T12:00:07;98063.41;;;24.01;49.31
3812;BME280;1921;49.368;11.068;2023-10-09T12:02:54;98093.88;;;24.37;48.02
3812;BME280;1921;49.368;11.068;2023-10-09T12:05:20;98140.06;;;24.43;49.70
3812;BME280;1921;49.368;11.068;2023-10-09T12:07:46;98129.09;;;23.90;49.49
3812;BME280;1921;49.368;11.068;2023-10-09T12:10:12;98100.22;;;22.95;50.68
3812;BME280;1921;49.368;11.068;2023-10-09T12:12:51;98225.88;;;23.02;51.75
3812;BME280;1921;49.368;11.068;2023-10-09T12:15:16;98051.13;;;21.56;52.98
3812;BME280;1921;49.368;11.068;2023-10-09T12:17:46;98150.75;;;22.04;52.48
3812;BME280;1921;49.368;11.068;2023-10-09T12:20:14;98095.69;;;21.42;53.62
3812;BME280;1921;49.368;11.068;2023-10-09T12:22:59;98098.81;;;21.16;53.97
3812;BME280;1921;49.368;11.068;2023-10-09T12:25:26;98208.00;;;21.83;54.79
3812;BME280;1921;49.368;11.068;2023-10-09T12:27:52;98120.97;;;21.21;55.75
3812;BME280;1921;49.368;11.068;2023-10-09T12:30:23;98181.03;;;21.74;54.87
3812;BME280;1921;49.368;11.068;2023-10-09T12:32:58;98069.63;;;21.28;55.95
3812;BME280;1921;49.368;11.068;2023-10-09T12:35:25;97946.09;;;20.91;55.65
3812;BME280;1921;49.368;11.068;2023-10-09T12:37:54;98086.81;;;22.22;54.24
3812;BME280;1921;49.368;11.068;2023-10-09T12:40:24;98088.88;;;22.49;54.90
3812;BME280;1921;49.368;11.068;2023-10-09T12:42:51;98065.59;;;22.56;55.90
3812;BME280;1921;49.368;11.068;2023-10-09T12:45:19;98039.13;;;22.66;56.44
3812;BME280;1921;49.368;11.068;2023-10-09T12:47:45;98034.84;;;22.82;53.93
3812;BME280;1921;49.368;11.068;2023-10-09T12:50:13;98023.50;;;23.08;53.31
3812;BME280;1921;49.368;11.068;2023-10-09T12:52:40;98027.66;;;23.21;51.77
3812;BME280;1921;49.368;11.068;2023-10-09T12:55:06;98023.84;;;23.39;50.92
3812;BME280;1921;49.368;11.068;2023-10-09T12:57:35;97988.38;;;23.33;49.54
3812;BME280;1921;49.368;11.068;2023-10-09T13:00:02;97989.13;;;23.51;48.78
3812;BME280;1921;49.368;11.068;2023-10-09T13:02:36;97926.97;;;23.13;49.87
3812;BME280;1921;49.368;11.068;2023-10-09T13:05:02;98005.41;;;23.81;49.46
3812;BME280;1921;49.368;11.068;2023-10-09T13:07:30;98004.44;;;23.66;49.03
3812;BME280;1921;49.368;11.068;2023-10-09T13:09:56;97993.84;;;23.44;48.68
3812;BME280;1921;49.368;11.068;2023-10-09T13:12:34;97998.63;;;23.42;49.15
3812;BME280;1921;49.368;11.068;2023-10-09T13:15:08;97947.91;;;23.04;47.80
3812;BME280;1921;49.368;11.068;2023-10-09T13:17:36;97955.84;;;23.26;48.23
3812;BME280;1921;49.368;11.068;2023-10-09T13:20:03;97903.31;;;22.90;48.07
3812;BME280;1921;49.368;11.068;2023-10-09T13:22:39;98007.91;;;23.66;46.99
3812;BME280;1921;49.368;11.068;2023-10-09T13:25:06;97951.72;;;23.41;46.71
3812;BME280;1921;49.368;11.068;2023-10-09T13:27:31;97977.41;;;23.52;47.36
3812;BME280;1921;49.368;11.068;2023-10-09T13:30:00;97956.91;;;23.52;46.71
3812;BME280;1921;49.368;11.068;2023-10-09T13:32:33;97978.25;;;23.57;46.59
3812;BME280;1921;49.368;11.068;2023-10-09T13:35:05;97979.00;;;23.53;46.84
3812;BME280;1921;49.368;11.068;2023-10-09T13:37:31;97986.56;;;23.61;46.63
3812;BME280;1921;49.368;11.068;2023-10-09T13:40:03;97992.19;;;23.64;46.01
3812;BME280;1921;49.368;11.068;2023-10-09T13:42:36;97962.84;;;23.32;45.60
3812;BME280;1921;49.368;11.068;2023-10-09T13:45:03;97948.53;;;23.17;45.68
3812;BME280;1921;49.368;11.068;2023-10-09T13:47:42;97926.06;;;23.02;45.48
3812;BME280;1921;49.368;11.068;2023-10-09T13:50:11;97929.38;;;23.15;45.26
3812;BME280;1921;49.368;11.068;2023-10-09T13:52:36;97819.16;;;22.56;44.51
3812;BME280;1921;49.368;11.068;2023-10-09T13:55:07;97945.19;;;23.53;44.71
3812;BME280;1921;49.368;11.068;2023-10-09T13:57:43;97903.91;;;23.51;44.13
3812;BME280;1921;49.368;11.068;2023-10-09T14:00:13;97923.72;;;23.92;43.03
3812;BME280;1921;49.368;11.068;2023-10-09T14:02:43;97906.88;;;24.24;42.36
3812;BME280;1921;49.368;11.068;2023-10-09T14:05:12;97956.31;;;24.99;41.53
3812;BME280;1921;49.368;11.068;2023-10-09T14:07:39;97927.19;;;24.87;40.22
3812;BME280;1921;49.368;11.068;2023-10-09T14:10:06;97928.78;;;24.78;40.42
3812;BME280;1921;49.368;11.068;2023-10-09T14:12:33;97950.69;;;24.95;40.43